Time;durP1;ratioP1;P1;durP2;ratioP2;P2;SDS_P1;SDS_P2;PMS_P1;PMS_P2;Temp;Humidity;BMP_temperature;BMP_pressure;BME280_temperature;BME280_humidity;BME280_pressure;Samples;Min_cycle;Max_cycle;Signal;HPM_P1;HPM_P2
2021/10/07 00:01:32;;;;;;;16.08;7.85;;;;;;;;;;5019363;28;20111;-56
2021/10/07 00:03:59;;;;;;;11.95;7.47;;;;;;;;;;5013080;28;20080;-55
2021/10/07 00:06:24;;;;;;;14.95;7.53;;;;;;;;;;5013556;28;20045;-55
2021/10/07 00:08:50;;;;;;;15.07;7.13;;;;;;;;;;5014725;28;20030;-55
2021/10/07 00:11:16;;;;;;;11.85;7.63;;;;;;;;;;5012553;28;20049;-55
2021/10/07 00:13:41;;;;;;;11.85;7.72;;;;;;;;;;5014734;28;20036;-55
2021/10/07 00:16:06;;;;;;;15.77;7.97;;;;;;;;;;5017947;28;20046;-55
2021/10/07 00:18:36;;;;;;;12.82;7.70;;;;;;;;;;5014490;28;20704;-55
2021/10/07 00:21:02;;;;;;;11.65;8.07;;;;;;;;;;5017140;28;20168;-56
2021/10/07 00:23:28;;;;;;;11.15;8.23;;;;;;;;;;5020984;28;20112;-57
2021/10/07 00:25:53;;;;;;;13.48;7.25;;;;;;;;;;5012816;28;20037;-56
2021/10/07 00:28:18;;;;;;;15.52;7.88;;;;;;;;;;5008863;28;20109;-55
2021/10/07 00:30:44;;;;;;;14.70;8.27;;;;;;;;;;5014040;28;20353;-56
2021/10/07 00:33:17;;;;;;;13.48;8.45;;;;;;;;;;5013378;28;20775;-55
2021/10/07 00:36:03;;;;;;;15.85;8.93;;;;;;;;;;5006604;28;20045;-55
2021/10/07 00:41:12;;;;;;;18.00;8.32;;;;;;;;;;5018157;28;20045;-56
2021/10/07 00:43:38;;;;;;;15.38;8.38;;;;;;;;;;5008243;28;20026;-54
2021/10/07 00:46:03;;;;;;;15.52;8.35;;;;;;;;;;5018707;28;20041;-56
2021/10/07 00:48:28;;;;;;;17.17;7.97;;;;;;;;;;5015752;28;20103;-55
2021/10/07 00:50:53;;;;;;;14.18;7.60;;;;;;;;;;5009934;28;20159;-57
2021/10/07 00:53:19;;;;;;;20.63;9.13;;;;;;;;;;5021857;28;20036;-55
2021/10/07 00:55:44;;;;;;;21.63;9.88;;;;;;;;;;5014122;28;20471;-55
2021/10/07 00:58:09;;;;;;;16.02;9.57;;;;;;;;;;5009427;28;20038;-55
2021/10/07 01:00:35;;;;;;;14.95;8.02;;;;;;;;;;5011921;28;20048;-56
2021/10/07 01:03:00;;;;;;;15.27;8.80;;;;;;;;;;5009912;28;20099;-56
2021/10/07 01:05:25;;;;;;;13.40;8.85;;;;;;;;;;5011020;28;20041;-55
2021/10/07 01:07:50;;;;;;;16.52;8.75;;;;;;;;;;5014351;28;20068;-56
2021/10/07 01:10:15;;;;;;;15.15;9.48;;;;;;;;;;5021296;28;20040;-56
2021/10/07 01:12:41;;;;;;;15.45;9.55;;;;;;;;;;5016676;28;20032;-55
2021/10/07 01:15:06;;;;;;;15.52;9.80;;;;;;;;;;5022926;28;20124;-55
2021/10/07 01:17:31;;;;;;;20.15;8.57;;;;;;;;;;5014906;28;20048;-55
2021/10/07 01:19:58;;;;;;;15.48;8.75;;;;;;;;;;5017602;28;20029;-56
2021/10/07 01:22:23;;;;;;;13.40;8.75;;;;;;;;;;5014444;28;20399;-55
2021/10/07 01:24:48;;;;;;;15.25;8.77;;;;;;;;;;5014142;28;20029;-55
2021/10/07 01:27:14;;;;;;;19.52;9.95;;;;;;;;;;5011146;28;20348;-54
2021/10/07 01:29:39;;;;;;;17.45;8.75;;;;;;;;;;5011898;28;20108;-56
2021/10/07 01:32:05;;;;;;;14.30;8.45;;;;;;;;;;5009575;28;20030;-56
2021/10/07 01:34:30;;;;;;;15.98;9.02;;;;;;;;;;5012150;28;20030;-55
2021/10/07 01:36:56;;;;;;;15.07;8.75;;;;;;;;;;5008705;28;20607;-56
2021/10/07 01:39:21;;;;;;;15.00;8.52;;;;;;;;;;5009072;28;20528;-54
2021/10/07 01:41:46;;;;;;;15.05;9.63;;;;;;;;;;5021602;28;20045;-54
2021/10/07 01:44:12;;;;;;;12.02;7.82;;;;;;;;;;5013299;28;20014;-55
2021/10/07 01:46:38;;;;;;;13.40;8.35;;;;;;;;;;5019205;28;20127;-55
2021/10/07 01:49:03;;;;;;;17.77;8.95;;;;;;;;;;5012931;28;20029;-54
2021/10/07 01:51:28;;;;;;;17.13;9.23;;;;;;;;;;5013059;28;20037;-58
2021/10/07 01:53:53;;;;;;;17.52;8.55;;;;;;;;;;5019147;28;20034;-57
2021/10/07 01:56:18;;;;;;;19.17;9.25;;;;;;;;;;5017885;28;20033;-57
2021/10/07 01:58:44;;;;;;;17.92;8.95;;;;;;;;;;5013103;28;20044;-54
2021/10/07 02:01:09;;;;;;;16.10;9.80;;;;;;;;;;5013492;28;20050;-55
2021/10/07 02:03:34;;;;;;;17.48;9.20;;;;;;;;;;5010534;28;20455;-55
2021/10/07 02:05:59;;;;;;;21.65;9.23;;;;;;;;;;5011523;28;20555;-55
2021/10/07 02:08:25;;;;;;;17.38;10.27;;;;;;;;;;5013372;28;20040;-57
2021/10/07 02:10:50;;;;;;;19.13;9.27;;;;;;;;;;5019153;28;20062;-56
2021/10/07 02:13:15;;;;;;;16.83;10.55;;;;;;;;;;5012845;28;20025;-57
2021/10/07 02:15:40;;;;;;;15.93;8.75;;;;;;;;;;5012714;28;20041;-56
2021/10/07 02:18:05;;;;;;;18.38;10.25;;;;;;;;;;5010064;28;20037;-56
2021/10/07 02:20:31;;;;;;;16.45;10.70;;;;;;;;;;5035530;28;20042;-56
2021/10/07 02:22:56;;;;;;;19.42;9.95;;;;;;;;;;5022003;28;20022;-56
2021/10/07 02:25:21;;;;;;;14.07;9.95;;;;;;;;;;5012170;28;20915;-57
2021/10/07 02:27:46;;;;;;;22.75;10.63;;;;;;;;;;5020410;28;20049;-55
2021/10/07 02:30:13;;;;;;;19.58;9.73;;;;;;;;;;5017846;28;20060;-54
2021/10/07 02:32:39;;;;;;;17.50;9.85;;;;;;;;;;5022439;28;20017;-54
2021/10/07 02:35:04;;;;;;;15.75;10.00;;;;;;;;;;5008682;28;20427;-54
2021/10/07 02:37:29;;;;;;;28.45;10.27;;;;;;;;;;5018181;28;20045;-55
2021/10/07 02:39:54;;;;;;;15.93;9.88;;;;;;;;;;5012584;28;20025;-56
2021/10/07 02:42:20;;;;;;;19.30;9.82;;;;;;;;;;5012031;28;20072;-57
2021/10/07 02:44:45;;;;;;;16.88;10.02;;;;;;;;;;5018521;28;20057;-57
2021/10/07 02:47:10;;;;;;;15.13;10.52;;;;;;;;;;5018737;28;20034;-58
2021/10/07 02:49:35;;;;;;;20.75;11.45;;;;;;;;;;5024132;28;20091;-56
2021/10/07 02:52:00;;;;;;;19.38;10.82;;;;;;;;;;5014909;28;20058;-56
2021/10/07 02:54:26;;;;;;;18.85;11.63;;;;;;;;;;5014863;28;20108;-56
2021/10/07 02:56:51;;;;;;;22.13;11.57;;;;;;;;;;5012527;28;20073;-56
2021/10/07 02:59:17;;;;;;;18.42;11.27;;;;;;;;;;5018922;28;20041;-56
2021/10/07 03:01:42;;;;;;;22.58;12.13;;;;;;;;;;5013114;28;20064;-56
2021/10/07 03:04:07;;;;;;;17.05;10.60;;;;;;;;;;5012151;28;20025;-54
2021/10/07 03:06:32;;;;;;;22.67;11.18;;;;;;;;;;5016335;28;20033;-56
2021/10/07 03:08:58;;;;;;;18.45;10.88;;;;;;;;;;5013778;28;20029;-56
2021/10/07 03:11:23;;;;;;;17.63;11.13;;;;;;;;;;5020626;28;20068;-55
2021/10/07 03:13:48;;;;;;;17.52;10.10;;;;;;;;;;5022238;28;20475;-55
2021/10/07 03:16:14;;;;;;;19.30;11.23;;;;;;;;;;5011243;28;20033;-55
2021/10/07 03:18:39;;;;;;;20.98;10.52;;;;;;;;;;5013826;28;20029;-56
2021/10/07 03:21:04;;;;;;;19.50;10.90;;;;;;;;;;5015664;28;20033;-55
2021/10/07 03:23:29;;;;;;;21.92;11.43;;;;;;;;;;5015863;28;20025;-55
2021/10/07 03:25:55;;;;;;;21.13;11.68;;;;;;;;;;5017466;28;20492;-56
2021/10/07 03:28:20;;;;;;;20.55;11.38;;;;;;;;;;5012659;28;20502;-56
2021/10/07 03:30:45;;;;;;;22.63;11.38;;;;;;;;;;5012260;28;20743;-57
2021/10/07 03:33:10;;;;;;;18.48;11.15;;;;;;;;;;5008376;28;20547;-55
2021/10/07 03:35:36;;;;;;;18.55;11.00;;;;;;;;;;5014252;28;20131;-56
2021/10/07 03:38:01;;;;;;;21.02;10.85;;;;;;;;;;5012001;28;20408;-56
2021/10/07 03:40:27;;;;;;;18.70;11.02;;;;;;;;;;5013328;28;20100;-56
2021/10/07 03:42:52;;;;;;;24.77;12.35;;;;;;;;;;5023827;28;20419;-56
2021/10/07 03:45:17;;;;;;;19.80;11.18;;;;;;;;;;5019317;28;20550;-55
2021/10/07 03:47:42;;;;;;;20.25;12.15;;;;;;;;;;5015326;28;20032;-56
2021/10/07 03:50:08;;;;;;;21.40;12.20;;;;;;;;;;5012000;28;20025;-55
2021/10/07 03:52:33;;;;;;;19.45;10.77;;;;;;;;;;5012377;28;20053;-55
2021/10/07 03:54:58;;;;;;;17.85;11.82;;;;;;;;;;5015085;28;20021;-56
2021/10/07 03:57:26;;;;;;;20.92;12.27;;;;;;;;;;5009607;28;20048;-55
2021/10/07 03:59:51;;;;;;;21.58;11.90;;;;;;;;;;5014324;28;20040;-56
2021/10/07 04:02:16;;;;;;;22.20;12.55;;;;;;;;;;5019394;28;20088;-57
2021/10/07 04:04:41;;;;;;;22.63;11.07;;;;;;;;;;5016438;28;20025;-55
2021/10/07 04:07:08;;;;;;;20.45;11.88;;;;;;;;;;5010271;28;20050;-55
2021/10/07 04:09:33;;;;;;;19.33;10.85;;;;;;;;;;5015541;28;20036;-56
2021/10/07 04:11:58;;;;;;;28.98;11.82;;;;;;;;;;5015039;28;20046;-55
2021/10/07 04:14:24;;;;;;;19.02;11.57;;;;;;;;;;5016385;28;20734;-54
2021/10/07 04:16:49;;;;;;;18.17;11.40;;;;;;;;;;5014804;28;20125;-55
2021/10/07 04:19:14;;;;;;;21.15;11.27;;;;;;;;;;5015694;28;20389;-55
2021/10/07 04:21:39;;;;;;;19.35;12.02;;;;;;;;;;5019545;28;20136;-57
2021/10/07 04:24:05;;;;;;;18.77;10.70;;;;;;;;;;5016586;28;20037;-56
2021/10/07 04:26:32;;;;;;;20.60;11.90;;;;;;;;;;5017281;28;20181;-55
2021/10/07 04:28:57;;;;;;;20.35;12.63;;;;;;;;;;5010533;28;20033;-55
2021/10/07 04:31:22;;;;;;;20.45;12.30;;;;;;;;;;5018327;28;20033;-53
2021/10/07 04:33:48;;;;;;;24.00;12.02;;;;;;;;;;5012650;28;20032;-54
2021/10/07 04:36:13;;;;;;;20.90;11.15;;;;;;;;;;5006177;28;20364;-57
2021/10/07 04:38:38;;;;;;;19.83;11.48;;;;;;;;;;5009546;28;20451;-57
2021/10/07 04:41:03;;;;;;;25.25;11.32;;;;;;;;;;5014211;28;20081;-54
2021/10/07 04:43:29;;;;;;;20.08;11.85;;;;;;;;;;5012663;28;20017;-55
2021/10/07 04:45:54;;;;;;;19.00;11.63;;;;;;;;;;5011335;28;20038;-55
2021/10/07 04:48:19;;;;;;;21.80;12.38;;;;;;;;;;5015691;28;20025;-55
2021/10/07 04:50:45;;;;;;;24.60;12.73;;;;;;;;;;5020502;28;20041;-55
2021/10/07 04:53:10;;;;;;;21.63;11.77;;;;;;;;;;5017661;28;20029;-56
2021/10/07 04:55:35;;;;;;;19.58;11.30;;;;;;;;;;5012803;28;20038;-54
2021/10/07 04:58:00;;;;;;;17.23;10.70;;;;;;;;;;5014910;28;20141;-54
2021/10/07 05:00:26;;;;;;;18.40;12.40;;;;;;;;;;5010493;28;20125;-54
2021/10/07 05:02:51;;;;;;;21.52;13.57;;;;;;;;;;5013982;28;20215;-53
2021/10/07 05:05:16;;;;;;;19.13;12.43;;;;;;;;;;5022247;28;20055;-54
2021/10/07 05:07:43;;;;;;;22.70;13.52;;;;;;;;;;5007322;28;20022;-55
2021/10/07 05:10:09;;;;;;;22.48;13.27;;;;;;;;;;5005968;28;20064;-55
2021/10/07 05:12:34;;;;;;;30.27;13.68;;;;;;;;;;5014232;28;20080;-58
2021/10/07 05:15:00;;;;;;;17.90;11.43;;;;;;;;;;5009772;28;20447;-54
2021/10/07 05:17:25;;;;;;;18.33;11.38;;;;;;;;;;5013492;28;20150;-55
2021/10/07 05:19:50;;;;;;;21.33;11.25;;;;;;;;;;5006043;28;20033;-55
2021/10/07 05:22:16;;;;;;;21.42;11.52;;;;;;;;;;5005955;28;20061;-55
2021/10/07 05:24:41;;;;;;;17.50;10.50;;;;;;;;;;5008701;28;20145;-55
2021/10/07 05:27:06;;;;;;;18.23;11.65;;;;;;;;;;5011145;28;20428;-56
2021/10/07 05:29:32;;;;;;;19.23;10.68;;;;;;;;;;5007678;28;20500;-55
2021/10/07 05:31:57;;;;;;;17.92;11.48;;;;;;;;;;5011788;28;20173;-56
2021/10/07 05:34:23;;;;;;;20.63;11.77;;;;;;;;;;5014487;28;20416;-54
2021/10/07 05:36:49;;;;;;;18.08;11.88;;;;;;;;;;5014790;28;20029;-58
2021/10/07 05:39:14;;;;;;;22.15;11.88;;;;;;;;;;5018013;28;20608;-55
2021/10/07 05:41:39;;;;;;;18.83;11.25;;;;;;;;;;5013946;28;20077;-55
2021/10/07 05:44:09;;;;;;;20.05;12.13;;;;;;;;;;5007826;28;20432;-56
2021/10/07 05:46:34;;;;;;;22.07;12.20;;;;;;;;;;5010659;28;20043;-57
2021/10/07 05:48:59;;;;;;;24.02;13.90;;;;;;;;;;5014337;28;20056;-56
2021/10/07 05:51:24;;;;;;;28.98;13.93;;;;;;;;;;5007729;28;20041;-54
2021/10/07 05:53:50;;;;;;;21.08;11.77;;;;;;;;;;5018536;28;20033;-54
2021/10/07 05:56:15;;;;;;;23.77;11.88;;;;;;;;;;5018563;28;20045;-54
2021/10/07 05:58:40;;;;;;;33.15;14.20;;;;;;;;;;5016620;28;20042;-55
2021/10/07 06:01:05;;;;;;;25.63;12.18;;;;;;;;;;5018071;28;20061;-54
2021/10/07 06:03:30;;;;;;;22.52;11.35;;;;;;;;;;5018601;28;20302;-54
2021/10/07 06:05:56;;;;;;;23.40;12.63;;;;;;;;;;5017246;28;20137;-55
2021/10/07 06:08:21;;;;;;;28.08;14.60;;;;;;;;;;5012665;28;20022;-54
2021/10/07 06:10:46;;;;;;;29.48;16.38;;;;;;;;;;5019249;28;20050;-56
2021/10/07 06:13:11;;;;;;;22.23;14.02;;;;;;;;;;5015928;28;20046;-56
2021/10/07 06:15:37;;;;;;;28.00;13.95;;;;;;;;;;5016755;28;20044;-55
2021/10/07 06:18:02;;;;;;;23.88;12.57;;;;;;;;;;5028711;28;20035;-55
2021/10/07 06:20:34;;;;;;;20.42;11.77;;;;;;;;;;5018711;28;20044;-56
2021/10/07 06:23:01;;;;;;;17.13;11.40;;;;;;;;;;5017904;28;20243;-56
2021/10/07 06:25:26;;;;;;;18.88;11.48;;;;;;;;;;5031488;28;20056;-56
2021/10/07 06:27:52;;;;;;;16.95;11.50;;;;;;;;;;5019899;28;20029;-56
2021/10/07 06:30:17;;;;;;;29.25;17.83;;;;;;;;;;5021981;28;20025;-56
2021/10/07 06:32:46;;;;;;;31.25;18.30;;;;;;;;;;5023977;28;20025;-57
2021/10/07 06:35:12;;;;;;;24.25;14.73;;;;;;;;;;5021718;28;20021;-57
2021/10/07 06:37:37;;;;;;;28.05;14.32;;;;;;;;;;5022338;28;20045;-56
2021/10/07 06:40:03;;;;;;;24.58;11.93;;;;;;;;;;5018966;28;20477;-55
2021/10/07 06:42:28;;;;;;;21.30;10.90;;;;;;;;;;5020126;28;20037;-55
2021/10/07 06:44:53;;;;;;;19.33;11.10;;;;;;;;;;5029298;28;20041;-54
2021/10/07 06:47:18;;;;;;;20.38;11.07;;;;;;;;;;5015244;28;20029;-55
2021/10/07 06:49:44;;;;;;;21.33;12.82;;;;;;;;;;5012927;28;20534;-57
2021/10/07 06:52:09;;;;;;;19.75;12.73;;;;;;;;;;5014891;28;20038;-56
2021/10/07 06:54:34;;;;;;;15.15;10.80;;;;;;;;;;5019244;28;20495;-57
2021/10/07 06:56:59;;;;;;;19.98;11.48;;;;;;;;;;5015380;28;20399;-55
2021/10/07 06:59:25;;;;;;;21.13;11.23;;;;;;;;;;5010487;28;20376;-55
2021/10/07 07:01:50;;;;;;;23.85;10.43;;;;;;;;;;5013785;28;20034;-56
2021/10/07 07:04:16;;;;;;;19.85;11.02;;;;;;;;;;5017593;28;20750;-55
2021/10/07 07:06:42;;;;;;;20.83;10.45;;;;;;;;;;5015985;28;20041;-56
2021/10/07 07:09:08;;;;;;;14.57;10.07;;;;;;;;;;5008917;28;20018;-57
2021/10/07 07:11:34;;;;;;;15.40;10.23;;;;;;;;;;5010573;28;20065;-56
2021/10/07 07:14:02;;;;;;;17.80;10.02;;;;;;;;;;5015387;28;20026;-55
2021/10/07 07:16:27;;;;;;;17.75;9.82;;;;;;;;;;5025541;28;20148;-55
2021/10/07 07:18:52;;;;;;;17.70;9.77;;;;;;;;;;5010116;28;20143;-55
2021/10/07 07:21:19;;;;;;;22.38;10.65;;;;;;;;;;5012673;28;20072;-54
2021/10/07 07:23:46;;;;;;;15.35;9.00;;;;;;;;;;5016183;28;20515;-55
2021/10/07 07:26:11;;;;;;;15.23;9.70;;;;;;;;;;5012602;28;20037;-55
2021/10/07 07:28:36;;;;;;;17.95;9.90;;;;;;;;;;5031164;28;20036;-56
2021/10/07 07:31:02;;;;;;;17.63;8.88;;;;;;;;;;5014696;28;20029;-55
2021/10/07 07:33:27;;;;;;;16.08;10.35;;;;;;;;;;5018710;28;20065;-56
2021/10/07 07:35:53;;;;;;;16.88;9.57;;;;;;;;;;5015280;28;20045;-55
2021/10/07 07:38:18;;;;;;;17.50;10.15;;;;;;;;;;5014251;28;20034;-54
2021/10/07 07:40:43;;;;;;;20.00;9.80;;;;;;;;;;5011304;28;20037;-55
2021/10/07 07:43:09;;;;;;;12.23;8.60;;;;;;;;;;5019963;28;20116;-55
2021/10/07 07:45:34;;;;;;;15.32;8.18;;;;;;;;;;5017561;28;20504;-55
2021/10/07 07:47:59;;;;;;;13.23;8.65;;;;;;;;;;5014601;28;20535;-55
2021/10/07 07:50:25;;;;;;;17.55;8.27;;;;;;;;;;5007453;28;20046;-55
2021/10/07 07:52:51;;;;;;;11.20;8.18;;;;;;;;;;5016346;28;20477;-54
2021/10/07 07:55:17;;;;;;;14.18;8.50;;;;;;;;;;5030335;28;20034;-55
2021/10/07 07:57:42;;;;;;;14.13;8.18;;;;;;;;;;5022164;28;20460;-56
2021/10/07 08:00:07;;;;;;;16.60;7.80;;;;;;;;;;5016385;28;20045;-55
2021/10/07 08:02:33;;;;;;;11.68;7.60;;;;;;;;;;5010595;28;20482;-56
2021/10/07 08:04:58;;;;;;;14.27;7.80;;;;;;;;;;5018669;28;20072;-57
2021/10/07 08:07:23;;;;;;;11.02;7.10;;;;;;;;;;5012015;28;20030;-56
2021/10/07 08:09:48;;;;;;;9.10;6.40;;;;;;;;;;5007903;28;20026;-57
2021/10/07 08:12:14;;;;;;;13.57;6.53;;;;;;;;;;5012424;28;20062;-56
2021/10/07 08:14:43;;;;;;;11.15;6.22;;;;;;;;;;5012951;28;20472;-55
2021/10/07 08:17:08;;;;;;;12.73;7.57;;;;;;;;;;5011369;28;20136;-56
2021/10/07 08:19:33;;;;;;;11.38;6.88;;;;;;;;;;5008608;28;20109;-57
2021/10/07 08:21:59;;;;;;;11.02;6.82;;;;;;;;;;5012655;28;20034;-56
2021/10/07 08:24:24;;;;;;;11.40;6.53;;;;;;;;;;5010867;28;20052;-56
2021/10/07 08:26:50;;;;;;;11.70;6.82;;;;;;;;;;5005815;28;20053;-56
2021/10/07 08:29:15;;;;;;;11.25;6.43;;;;;;;;;;5011695;28;20087;-56
2021/10/07 08:31:40;;;;;;;11.05;5.97;;;;;;;;;;5008707;28;20037;-55
2021/10/07 08:34:05;;;;;;;11.07;6.68;;;;;;;;;;5013539;28;20025;-57
2021/10/07 08:36:32;;;;;;;12.15;6.60;;;;;;;;;;5008675;28;20233;-56
2021/10/07 08:38:58;;;;;;;12.70;7.40;;;;;;;;;;5015132;28;20128;-57
2021/10/07 08:41:23;;;;;;;12.25;7.28;;;;;;;;;;5013586;28;20116;-57
2021/10/07 08:43:49;;;;;;;12.63;7.00;;;;;;;;;;5014420;28;20033;-57
2021/10/07 08:46:14;;;;;;;9.18;6.25;;;;;;;;;;5019478;28;20042;-57
2021/10/07 08:48:39;;;;;;;13.40;7.20;;;;;;;;;;5014272;28;20487;-58
2021/10/07 08:51:04;;;;;;;8.98;6.15;;;;;;;;;;5010275;28;20072;-59
2021/10/07 08:53:30;;;;;;;11.68;7.78;;;;;;;;;;5012128;28;20034;-58
2021/10/07 08:55:55;;;;;;;16.00;8.40;;;;;;;;;;5008890;28;20488;-57
2021/10/07 08:58:20;;;;;;;13.60;8.80;;;;;;;;;;5016719;28;20036;-57
2021/10/07 09:00:46;;;;;;;15.77;9.07;;;;;;;;;;5015442;28;20139;-57
2021/10/07 09:03:20;;;;;;;13.23;9.02;;;;;;;;;;5030158;28;20119;-57
2021/10/07 09:05:46;;;;;;;10.52;8.82;;;;;;;;;;5018305;28;20042;-57
2021/10/07 09:08:13;;;;;;;14.60;9.02;;;;;;;;;;5020626;28;20064;-57
2021/10/07 09:10:50;;;;;;;14.05;8.38;;;;;;;;;;5017671;28;20052;-57
2021/10/07 09:13:20;;;;;;;13.05;8.40;;;;;;;;;;5008850;28;20341;-57
2021/10/07 09:15:48;;;;;;;16.92;9.07;;;;;;;;;;5014567;28;20507;-57
2021/10/07 09:18:13;;;;;;;12.18;8.90;;;;;;;;;;5006662;28;20026;-57
2021/10/07 09:20:40;;;;;;;14.75;7.90;;;;;;;;;;5018578;28;20038;-56
2021/10/07 09:23:10;;;;;;;12.55;8.52;;;;;;;;;;5022662;28;20018;-57
2021/10/07 09:26:11;;;;;;;14.10;8.73;;;;;;;;;;5016026;28;21494;-57
2021/10/07 09:28:52;;;;;;;13.43;8.50;;;;;;;;;;5028828;28;20420;-57
2021/10/07 09:31:27;;;;;;;16.00;9.55;;;;;;;;;;5017773;28;20041;-57
2021/10/07 09:33:55;;;;;;;13.85;8.88;;;;;;;;;;5031803;28;20423;-56
2021/10/07 09:36:21;;;;;;;13.27;8.55;;;;;;;;;;5016850;28;20447;-57
2021/10/07 09:38:48;;;;;;;13.77;9.30;;;;;;;;;;5008450;28;20042;-57
2021/10/07 09:41:17;;;;;;;13.63;7.93;;;;;;;;;;5014318;28;20034;-56
2021/10/07 09:43:46;;;;;;;15.00;8.40;;;;;;;;;;5018353;28;20021;-55
2021/10/07 09:46:11;;;;;;;14.15;7.88;;;;;;;;;;5007595;28;20038;-56
2021/10/07 09:48:38;;;;;;;12.98;7.80;;;;;;;;;;5021830;28;20041;-56
2021/10/07 09:51:10;;;;;;;15.30;8.25;;;;;;;;;;5019858;28;20265;-55
2021/10/07 09:53:36;;;;;;;15.38;8.02;;;;;;;;;;5020170;28;20052;-56
2021/10/07 09:56:01;;;;;;;11.82;7.40;;;;;;;;;;5026617;28;20107;-56
2021/10/07 09:58:26;;;;;;;13.85;7.95;;;;;;;;;;5009271;28;20372;-56
2021/10/07 10:00:54;;;;;;;14.68;8.65;;;;;;;;;;5019878;28;20057;-55
2021/10/07 10:03:21;;;;;;;16.75;8.35;;;;;;;;;;5024273;28;20048;-55
2021/10/07 10:05:46;;;;;;;12.38;8.07;;;;;;;;;;5014010;28;20057;-55
2021/10/07 10:08:12;;;;;;;12.43;8.32;;;;;;;;;;5015969;28;20041;-56
2021/10/07 10:10:39;;;;;;;13.25;8.40;;;;;;;;;;5022064;28;20045;-56
2021/10/07 10:13:05;;;;;;;12.68;9.00;;;;;;;;;;5017551;28;20044;-55
2021/10/07 10:15:30;;;;;;;15.57;10.13;;;;;;;;;;5011297;28;20484;-55
2021/10/07 10:17:55;;;;;;;21.40;10.65;;;;;;;;;;5031395;28;20025;-55
2021/10/07 10:20:22;;;;;;;17.00;11.77;;;;;;;;;;5013598;28;20038;-55
2021/10/07 10:22:49;;;;;;;20.25;11.20;;;;;;;;;;5018052;28;20021;-55
2021/10/07 10:25:14;;;;;;;19.75;10.63;;;;;;;;;;5019785;28;20033;-55
2021/10/07 10:27:46;;;;;;;15.15;10.07;;;;;;;;;;5011062;28;20029;-55
2021/10/07 10:30:18;;;;;;;20.73;9.90;;;;;;;;;;5012986;28;20261;-55
2021/10/07 10:32:43;;;;;;;15.18;8.15;;;;;;;;;;5016605;28;20125;-55
2021/10/07 10:35:20;;;;;;;14.27;9.07;;;;;;;;;;5011187;28;20034;-55
2021/10/07 10:37:56;;;;;;;13.43;8.90;;;;;;;;;;5025060;28;20111;-54
2021/10/07 10:40:21;;;;;;;17.20;9.63;;;;;;;;;;5017391;28;20569;-55
2021/10/07 10:42:46;;;;;;;12.48;8.32;;;;;;;;;;5013213;28;20034;-55
2021/10/07 10:45:11;;;;;;;20.88;8.73;;;;;;;;;;5015423;28;20124;-55
2021/10/07 10:47:40;;;;;;;13.75;8.40;;;;;;;;;;5011544;28;20022;-56
2021/10/07 10:50:07;;;;;;;15.50;9.57;;;;;;;;;;5012247;28;20380;-54
2021/10/07 10:52:41;;;;;;;17.52;10.30;;;;;;;;;;5017270;28;20124;-55
2021/10/07 10:55:10;;;;;;;18.50;10.77;;;;;;;;;;5018067;28;20021;-55
2021/10/07 10:57:36;;;;;;;17.53;9.93;;;;;;;;;;5016401;28;20627;-55
2021/10/07 11:00:14;;;;;;;19.25;10.55;;;;;;;;;;5012883;28;20149;-56
2021/10/07 11:02:51;;;;;;;15.90;9.98;;;;;;;;;;5009582;28;20443;-55
2021/10/07 11:05:16;;;;;;;16.65;11.38;;;;;;;;;;5016047;28;20140;-55
2021/10/07 11:07:41;;;;;;;19.25;10.85;;;;;;;;;;5017271;28;20108;-56
2021/10/07 11:10:11;;;;;;;18.85;11.23;;;;;;;;;;5011997;28;20116;-54
2021/10/07 11:12:48;;;;;;;16.77;9.65;;;;;;;;;;5028561;28;20046;-54
2021/10/07 11:15:14;;;;;;;19.70;11.70;;;;;;;;;;5016115;28;20476;-55
2021/10/07 11:17:40;;;;;;;19.63;11.85;;;;;;;;;;5010992;28;20033;-55
2021/10/07 11:20:05;;;;;;;16.27;10.55;;;;;;;;;;5007851;28;20499;-56
2021/10/07 11:22:30;;;;;;;20.77;11.35;;;;;;;;;;5018352;28;20021;-55
2021/10/07 11:24:56;;;;;;;18.38;11.23;;;;;;;;;;5020712;28;20029;-57
2021/10/07 11:27:32;;;;;;;19.08;11.30;;;;;;;;;;5009682;28;20098;-55
2021/10/07 11:29:57;;;;;;;21.20;12.50;;;;;;;;;;5015149;28;20084;-55
2021/10/07 11:32:23;;;;;;;19.13;13.13;;;;;;;;;;5021212;28;20033;-55
2021/10/07 11:35:07;;;;;;;22.23;12.85;;;;;;;;;;5018538;28;20088;-55
2021/10/07 11:37:51;;;;;;;26.13;11.90;;;;;;;;;;5022937;28;20045;-55
2021/10/07 11:40:19;;;;;;;18.38;11.75;;;;;;;;;;5022038;28;20025;-55
2021/10/07 11:42:44;;;;;;;19.52;11.35;;;;;;;;;;5019602;28;20557;-55
2021/10/07 11:45:16;;;;;;;16.88;9.25;;;;;;;;;;5013117;28;20070;-55
2021/10/07 11:47:42;;;;;;;14.35;8.45;;;;;;;;;;5014649;28;20658;-54
2021/10/07 11:50:11;;;;;;;18.30;9.95;;;;;;;;;;5013945;28;20030;-53
2021/10/07 11:52:37;;;;;;;13.73;8.88;;;;;;;;;;5023763;28;20112;-54
2021/10/07 11:55:02;;;;;;;15.93;10.02;;;;;;;;;;5023515;28;20029;-55
2021/10/07 11:57:28;;;;;;;16.20;9.18;;;;;;;;;;5022976;28;20041;-55
2021/10/07 11:59:53;;;;;;;19.42;9.57;;;;;;;;;;5020102;28;20462;-56
2021/10/07 12:02:18;;;;;;;15.98;9.23;;;;;;;;;;5019747;28;20033;-57
2021/10/07 12:04:43;;;;;;;13.18;8.32;;;;;;;;;;5018704;28;20029;-56
2021/10/07 12:07:12;;;;;;;14.95;8.68;;;;;;;;;;5017508;28;20333;-55
2021/10/07 12:09:40;;;;;;;16.23;9.30;;;;;;;;;;5021141;28;20025;-56
2021/10/07 12:12:05;;;;;;;16.17;8.85;;;;;;;;;;5019970;28;20118;-55
2021/10/07 12:14:34;;;;;;;19.55;9.30;;;;;;;;;;5015135;28;20061;-55
2021/10/07 12:16:59;;;;;;;14.85;8.02;;;;;;;;;;5015876;28;20038;-56
2021/10/07 12:19:28;;;;;;;11.82;7.18;;;;;;;;;;5032459;28;20056;-55
2021/10/07 12:21:59;;;;;;;15.50;8.23;;;;;;;;;;5033293;28;20029;-54
2021/10/07 12:24:25;;;;;;;12.52;7.53;;;;;;;;;;5020457;28;20025;-54
2021/10/07 12:26:54;;;;;;;15.88;8.93;;;;;;;;;;5023061;28;20348;-55
2021/10/07 12:29:19;;;;;;;17.15;9.27;;;;;;;;;;5033447;28;20314;-55
2021/10/07 12:31:51;;;;;;;14.00;8.40;;;;;;;;;;5015176;28;20542;-55
2021/10/07 12:34:16;;;;;;;13.20;8.13;;;;;;;;;;5010146;28;20365;-55
2021/10/07 12:36:43;;;;;;;14.05;8.75;;;;;;;;;;5008496;28;20141;-54
2021/10/07 12:39:22;;;;;;;11.73;7.50;;;;;;;;;;5015302;28;20033;-55
2021/10/07 12:41:48;;;;;;;13.95;8.48;;;;;;;;;;5015543;28;20068;-55
2021/10/07 12:44:18;;;;;;;13.25;7.93;;;;;;;;;;5011791;28;20037;-55
2021/10/07 12:46:45;;;;;;;12.88;8.38;;;;;;;;;;5015533;28;20046;-56
2021/10/07 12:49:10;;;;;;;12.57;8.00;;;;;;;;;;5014742;28;20069;-55
2021/10/07 12:51:35;;;;;;;16.48;7.95;;;;;;;;;;5032194;28;20038;-55
2021/10/07 12:54:01;;;;;;;13.35;7.15;;;;;;;;;;5019627;28;20029;-55
2021/10/07 12:56:30;;;;;;;13.52;7.60;;;;;;;;;;5017066;28;20037;-55
2021/10/07 12:58:59;;;;;;;13.43;8.27;;;;;;;;;;5016428;28;20400;-54
2021/10/07 13:01:25;;;;;;;10.82;5.20;;;;;;;;;;5017337;28;20104;-55
2021/10/07 13:04:09;;;;;;;8.80;5.53;;;;;;;;;;5014234;28;20240;-56
2021/10/07 13:06:34;;;;;;;11.77;6.10;;;;;;;;;;5033321;28;20045;-53
2021/10/07 13:08:59;;;;;;;10.48;5.60;;;;;;;;;;5014859;28;20029;-55
2021/10/07 13:11:25;;;;;;;11.15;5.88;;;;;;;;;;5020365;28;20057;-54
2021/10/07 13:13:50;;;;;;;10.25;5.95;;;;;;;;;;5018699;28;20404;-54
2021/10/07 13:16:16;;;;;;;14.25;6.50;;;;;;;;;;5015604;28;20620;-54
2021/10/07 13:18:41;;;;;;;11.23;6.57;;;;;;;;;;4998084;28;20034;-54
2021/10/07 13:21:06;;;;;;;7.65;4.40;;;;;;;;;;5010322;28;20053;-53
2021/10/07 13:23:31;;;;;;;9.30;4.10;;;;;;;;;;5019410;28;20044;-56
2021/10/07 13:25:57;;;;;;;7.82;4.57;;;;;;;;;;5014450;28;20333;-55
2021/10/07 13:28:22;;;;;;;6.93;3.72;;;;;;;;;;5032692;28;20017;-55
2021/10/07 13:30:47;;;;;;;6.25;3.80;;;;;;;;;;5017578;28;20057;-55
2021/10/07 13:33:12;;;;;;;6.63;4.07;;;;;;;;;;5018100;28;20030;-55
2021/10/07 13:35:38;;;;;;;6.70;3.85;;;;;;;;;;5020873;28;20123;-55
2021/10/07 13:38:03;;;;;;;5.47;3.67;;;;;;;;;;5024593;28;20040;-54
2021/10/07 13:40:28;;;;;;;5.90;3.97;;;;;;;;;;5022284;28;20064;-55
2021/10/07 13:42:54;;;;;;;4.80;3.30;;;;;;;;;;5020391;28;20021;-55
2021/10/07 13:45:19;;;;;;;5.20;3.25;;;;;;;;;;5015653;28;20116;-54
2021/10/07 13:47:47;;;;;;;6.25;3.10;;;;;;;;;;5025019;28;20112;-55
2021/10/07 13:50:13;;;;;;;5.47;3.63;;;;;;;;;;5022647;28;20026;-56
2021/10/07 13:52:38;;;;;;;5.75;3.35;;;;;;;;;;5019271;28;20033;-54
2021/10/07 13:55:03;;;;;;;6.68;3.75;;;;;;;;;;5016776;28;20504;-54
2021/10/07 13:57:30;;;;;;;6.05;3.90;;;;;;;;;;5020998;28;20462;-57
2021/10/07 13:59:55;;;;;;;5.47;3.75;;;;;;;;;;5016167;28;20756;-54
2021/10/07 14:02:20;;;;;;;5.72;3.95;;;;;;;;;;5015449;28;20033;-55
2021/10/07 14:04:46;;;;;;;5.22;3.50;;;;;;;;;;5014520;28;20030;-54
2021/10/07 14:07:11;;;;;;;9.07;4.00;;;;;;;;;;5012075;28;20051;-55
2021/10/07 14:09:36;;;;;;;5.65;3.88;;;;;;;;;;5015705;28;20026;-55
2021/10/07 14:12:02;;;;;;;6.50;3.95;;;;;;;;;;5020192;28;20054;-53
2021/10/07 14:14:28;;;;;;;7.07;3.53;;;;;;;;;;5014203;28;20037;-55
2021/10/07 14:16:53;;;;;;;8.80;4.60;;;;;;;;;;5009916;28;20129;-52
2021/10/07 14:19:18;;;;;;;7.10;3.60;;;;;;;;;;5020853;28;20494;-55
2021/10/07 14:21:43;;;;;;;10.50;4.03;;;;;;;;;;5013195;28;20026;-54
2021/10/07 14:24:08;;;;;;;7.97;4.03;;;;;;;;;;5021505;28;20029;-55